sensor_id;sensor_type;location;lat;lon;timestamp;temperature;humidity
14006;DHT22;7078;51.542;7.314;2023-06-22T00:01:54;20.90;99.90
14006;DHT22;7078;51.542;7.314;2023-06-22T00:04:19;20.80;99.90
14006;DHT22;7078;51.542;7.314;2023-06-22T00:06:45;20.80;99.90
14006;DHT22;7078;51.542;7.314;2023-06-22T00:09:10;20.80;99.90
14006;DHT22;7078;51.542;7.314;2023-06-22T00:11:37;20.70;99.90
14006;DHT22;7078;51.542;7.314;2023-06-22T00:14:03;20.70;99.90
14006;DHT22;7078;51.542;7.314;2023-06-22T00:16:29;20.70;99.90
14006;DHT22;7078;51.542;7.314;2023-06-22T00:18:54;20.70;99.90
14006;DHT22;7078;51.542;7.314;2023-06-22T00:21:20;20.70;99.90
14006;DHT22;7078;51.542;7.314;2023-06-22T00:23:46;20.70;99.90
14006;DHT22;7078;51.542;7.314;2023-06-22T00:26:13;20.70;99.90
14006;DHT22;7078;51.542;7.314;2023-06-22T00:28:38;20.50;99.90
14006;DHT22;7078;51.542;7.314;2023-06-22T00:31:04;20.60;99.90
14006;DHT22;7078;51.542;7.314;2023-06-22T00:33:30;20.60;99.90
14006;DHT22;7078;51.542;7.314;2023-06-22T00:35:56;20.60;99.90
14006;DHT22;7078;51.542;7.314;2023-06-22T00:38:22;20.60;99.90
14006;DHT22;7078;51.542;7.314;2023-06-22T00:40:48;20.50;99.90
14006;DHT22;7078;51.542;7.314;2023-06-22T00:43:13;20.50;99.90
14006;DHT22;7078;51.542;7.314;2023-06-22T00:45:39;20.50;99.90
14006;DHT22;7078;51.542;7.314;2023-06-22T00:48:06;20.50;99.90
14006;DHT22;7078;51.542;7.314;2023-06-22T00:50:33;20.40;99.90
14006;DHT22;7078;51.542;7.314;2023-06-22T00:53:02;20.40;99.90
14006;DHT22;7078;51.542;7.314;2023-06-22T00:55:30;20.40;99.90
14006;DHT22;7078;51.542;7.314;2023-06-22T00:57:55;20.40;99.90
14006;DHT22;7078;51.542;7.314;2023-06-22T01:00:23;20.40;99.90
14006;DHT22;7078;51.542;7.314;2023-06-22T01:02:53;20.40;99.90
14006;DHT22;7078;51.542;7.314;2023-06-22T01:05:19;20.40;99.90
14006;DHT22;7078;51.542;7.314;2023-06-22T01:13:14;20.30;99.90
14006;DHT22;7078;51.542;7.314;2023-06-22T01:15:53;20.30;99.90
14006;DHT22;7078;51.542;7.314;2023-06-22T01:18:22;20.20;99.90
14006;DHT22;7078;51.542;7.314;2023-06-22T01:20:54;20.20;99.90
14006;DHT22;7078;51.542;7.314;2023-06-22T01:23:47;20.20;99.90
14006;DHT22;7078;51.542;7.314;2023-06-22T01:26:22;20.20;99.90
14006;DHT22;7078;51.542;7.314;2023-06-22T01:28:54;20.20;99.90
14006;DHT22;7078;51.542;7.314;2023-06-22T01:31:25;20.20;99.90
14006;DHT22;7078;51.542;7.314;2023-06-22T01:33:55;20.20;99.90
14006;DHT22;7078;51.542;7.314;2023-06-22T01:36:23;20.10;99.90
14006;DHT22;7078;51.542;7.314;2023-06-22T01:38:49;20.10;99.90
14006;DHT22;7078;51.542;7.314;2023-06-22T01:41:16;20.10;99.90
14006;DHT22;7078;51.542;7.314;2023-06-22T01:43:43;20.10;99.90
14006;DHT22;7078;51.542;7.314;2023-06-22T01:46:09;20.00;99.90
14006;DHT22;7078;51.542;7.314;2023-06-22T01:48:35;20.00;99.90
14006;DHT22;7078;51.542;7.314;2023-06-22T01:51:01;19.90;99.90
14006;DHT22;7078;51.542;7.314;2023-06-22T01:53:27;19.90;99.90
14006;DHT22;7078;51.542;7.314;2023-06-22T01:55:52;19.90;99.90
14006;DHT22;7078;51.542;7.314;2023-06-22T01:58:27;19.90;99.90
14006;DHT22;7078;51.542;7.314;2023-06-22T02:01:20;19.90;99.90
14006;DHT22;7078;51.542;7.314;2023-06-22T02:03:57;19.90;99.90
14006;DHT22;7078;51.542;7.314;2023-06-22T02:06:30;19.90;99.90
14006;DHT22;7078;51.542;7.314;2023-06-22T02:09:02;19.90;99.90
14006;DHT22;7078;51.542;7.314;2023-06-22T02:11:31;19.80;99.90
14006;DHT22;7078;51.542;7.314;2023-06-22T02:13:58;19.80;99.90
14006;DHT22;7078;51.542;7.314;2023-06-22T02:16:25;19.70;99.90
14006;DHT22;7078;51.542;7.314;2023-06-22T02:18:55;19.70;99.90
14006;DHT22;7078;51.542;7.314;2023-06-22T02:21:22;19.70;99.90
14006;DHT22;7078;51.542;7.314;2023-06-22T02:23:47;19.80;99.90
14006;DHT22;7078;51.542;7.314;2023-06-22T02:26:15;19.70;99.90
14006;DHT22;7078;51.542;7.314;2023-06-22T02:28:41;19.80;99.90
14006;DHT22;7078;51.542;7.314;2023-06-22T02:31:06;19.70;99.90
14006;DHT22;7078;51.542;7.314;2023-06-22T02:33:32;19.70;99.90
14006;DHT22;7078;51.542;7.314;2023-06-22T02:35:57;19.70;99.90
14006;DHT22;7078;51.542;7.314;2023-06-22T02:38:23;19.80;99.90
14006;DHT22;7078;51.542;7.314;2023-06-22T02:40:50;19.70;99.90
14006;DHT22;7078;51.542;7.314;2023-06-22T02:43:15;19.70;99.90
14006;DHT22;7078;51.542;7.314;2023-06-22T02:45:41;19.60;99.90
14006;DHT22;7078;51.542;7.314;2023-06-22T02:48:06;19.80;99.90
14006;DHT22;7078;51.542;7.314;2023-06-22T02:50:32;19.80;99.90
14006;DHT22;7078;51.542;7.314;2023-06-22T02:52:57;19.80;99.90
14006;DHT22;7078;51.542;7.314;2023-06-22T02:55:23;19.80;99.90
14006;DHT22;7078;51.542;7.314;2023-06-22T02:57:49;19.80;99.90
14006;DHT22;7078;51.542;7.314;2023-06-22T03:00:18;19.80;99.90
14006;DHT22;7078;51.542;7.314;2023-06-22T03:02:45;19.80;99.90
14006;DHT22;7078;51.542;7.314;2023-06-22T03:05:11;19.80;99.90
14006;DHT22;7078;51.542;7.314;2023-06-22T03:07:40;19.70;99.90
14006;DHT22;7078;51.542;7.314;2023-06-22T03:10:06;19.70;99.90
14006;DHT22;7078;51.542;7.314;2023-06-22T03:12:32;19.70;99.90
14006;DHT22;7078;51.542;7.314;2023-06-22T03:14:57;19.70;99.90
14006;DHT22;7078;51.542;7.314;2023-06-22T03:17:23;19.70;99.90
14006;DHT22;7078;51.542;7.314;2023-06-22T03:19:49;19.80;99.90
14006;DHT22;7078;51.542;7.314;2023-06-22T03:22:14;19.70;99.90
14006;DHT22;7078;51.542;7.314;2023-06-22T03:24:40;19.60;99.90
14006;DHT22;7078;51.542;7.314;2023-06-22T03:27:06;19.70;99.90
14006;DHT22;7078;51.542;7.314;2023-06-22T03:29:32;19.60;99.90
14006;DHT22;7078;51.542;7.314;2023-06-22T03:31:57;19.60;99.90
14006;DHT22;7078;51.542;7.314;2023-06-22T03:34:23;19.70;99.90
14006;DHT22;7078;51.542;7.314;2023-06-22T03:36:48;19.60;99.90
14006;DHT22;7078;51.542;7.314;2023-06-22T03:39:14;19.80;99.90
14006;DHT22;7078;51.542;7.314;2023-06-22T03:41:40;19.50;99.90
14006;DHT22;7078;51.542;7.314;2023-06-22T03:44:05;19.50;99.90
14006;DHT22;7078;51.542;7.314;2023-06-22T03:46:31;19.50;99.90
14006;DHT22;7078;51.542;7.314;2023-06-22T03:48:56;19.50;99.90
14006;DHT22;7078;51.542;7.314;2023-06-22T03:51:22;19.40;99.90
14006;DHT22;7078;51.542;7.314;2023-06-22T03:53:47;19.40;99.90
14006;DHT22;7078;51.542;7.314;2023-06-22T03:56:13;19.40;99.90
14006;DHT22;7078;51.542;7.314;2023-06-22T03:58:45;19.50;99.90
14006;DHT22;7078;51.542;7.314;2023-06-22T04:01:11;19.40;99.90
14006;DHT22;7078;51.542;7.314;2023-06-22T04:03:37;19.40;99.90
14006;DHT22;7078;51.542;7.314;2023-06-22T04:06:03;19.40;99.90
14006;DHT22;7078;51.542;7.314;2023-06-22T04:08:29;19.40;99.90
14006;DHT22;7078;51.542;7.314;2023-06-22T04:10:54;19.40;99.90
14006;DHT22;7078;51.542;7.314;2023-06-22T04:13:20;19.40;99.90
14006;DHT22;7078;51.542;7.314;2023-06-22T04:15:46;19.50;99.90
14006;DHT22;7078;51.542;7.314;2023-06-22T04:18:11;19.50;99.90
14006;DHT22;7078;51.542;7.314;2023-06-22T04:20:37;19.40;99.90
14006;DHT22;7078;51.542;7.314;2023-06-22T04:23:02;19.50;99.90
14006;DHT22;7078;51.542;7.314;2023-06-22T04:25:28;19.50;99.90
14006;DHT22;7078;51.542;7.314;2023-06-22T04:27:53;19.50;99.90
14006;DHT22;7078;51.542;7.314;2023-06-22T04:30:19;19.50;99.90
14006;DHT22;7078;51.542;7.314;2023-06-22T04:32:45;19.60;99.90
14006;DHT22;7078;51.542;7.314;2023-06-22T04:35:11;19.50;99.90
14006;DHT22;7078;51.542;7.314;2023-06-22T04:37:37;19.60;99.90
14006;DHT22;7078;51.542;7.314;2023-06-22T04:40:03;19.60;99.90
14006;DHT22;7078;51.542;7.314;2023-06-22T04:42:30;19.60;99.90
14006;DHT22;7078;51.542;7.314;2023-06-22T04:44:57;19.70;99.90
14006;DHT22;7078;51.542;7.314;2023-06-22T04:47:22;19.80;99.90
14006;DHT22;7078;51.542;7.314;2023-06-22T04:49:48;19.60;99.90
14006;DHT22;7078;51.542;7.314;2023-06-22T04:52:14;19.80;99.90
14006;DHT22;7078;51.542;7.314;2023-06-22T04:54:43;19.80;99.90
14006;DHT22;7078;51.542;7.314;2023-06-22T04:57:16;19.80;99.90
14006;DHT22;7078;51.542;7.314;2023-06-22T04:59:41;19.80;99.90
14006;DHT22;7078;51.542;7.314;2023-06-22T05:02:07;19.90;99.90
14006;DHT22;7078;51.542;7.314;2023-06-22T05:04:34;19.90;99.90
14006;DHT22;7078;51.542;7.314;2023-06-22T05:07:06;20.10;99.90
14006;DHT22;7078;51.542;7.314;2023-06-22T05:09:32;20.00;99.90
14006;DHT22;7078;51.542;7.314;2023-06-22T05:11:59;20.00;99.90
14006;DHT22;7078;51.542;7.314;2023-06-22T05:14:27;20.20;99.90
14006;DHT22;7078;51.542;7.314;2023-06-22T05:16:53;20.20;99.90
14006;DHT22;7078;51.542;7.314;2023-06-22T05:19:18;20.20;99.90
14006;DHT22;7078;51.542;7.314;2023-06-22T05:21:44;20.20;99.90
14006;DHT22;7078;51.542;7.314;2023-06-22T05:24:10;20.10;99.90
14006;DHT22;7078;51.542;7.314;2023-06-22T05:26:35;20.10;99.90
14006;DHT22;7078;51.542;7.314;2023-06-22T05:29:02;20.20;99.90
14006;DHT22;7078;51.542;7.314;2023-06-22T05:31:28;20.20;99.90
14006;DHT22;7078;51.542;7.314;2023-06-22T05:33:55;20.20;99.90
14006;DHT22;7078;51.542;7.314;2023-06-22T05:36:21;20.20;99.90
14006;DHT22;7078;51.542;7.314;2023-06-22T05:38:50;20.40;99.90
14006;DHT22;7078;51.542;7.314;2023-06-22T05:41:16;20.30;99.90
14006;DHT22;7078;51.542;7.314;2023-06-22T05:43:42;20.40;99.90
14006;DHT22;7078;51.542;7.314;2023-06-22T05:46:07;20.50;99.90
14006;DHT22;7078;51.542;7.314;2023-06-22T05:48:33;20.20;99.90
14006;DHT22;7078;51.542;7.314;2023-06-22T05:50:59;20.40;99.90
14006;DHT22;7078;51.542;7.314;2023-06-22T05:53:24;20.40;99.90
14006;DHT22;7078;51.542;7.314;2023-06-22T05:55:50;20.50;99.90
14006;DHT22;7078;51.542;7.314;2023-06-22T05:58:16;20.50;99.90
14006;DHT22;7078;51.542;7.314;2023-06-22T06:00:41;20.50;99.90
14006;DHT22;7078;51.542;7.314;2023-06-22T06:03:08;20.60;99.90
14006;DHT22;7078;51.542;7.314;2023-06-22T06:05:35;20.70;99.90
14006;DHT22;7078;51.542;7.314;2023-06-22T06:08:02;20.80;99.90
14006;DHT22;7078;51.542;7.314;2023-06-22T06:10:28;20.90;99.90
14006;DHT22;7078;51.542;7.314;2023-06-22T06:12:55;20.90;99.90
14006;DHT22;7078;51.542;7.314;2023-06-22T06:15:21;21.00;99.90
14006;DHT22;7078;51.542;7.314;2023-06-22T06:17:51;21.00;99.90
14006;DHT22;7078;51.542;7.314;2023-06-22T06:20:20;21.10;99.90
14006;DHT22;7078;51.542;7.314;2023-06-22T06:22:46;21.10;99.90
14006;DHT22;7078;51.542;7.314;2023-06-22T06:25:12;21.10;99.90
14006;DHT22;7078;51.542;7.314;2023-06-22T06:27:45;21.10;99.90
14006;DHT22;7078;51.542;7.314;2023-06-22T06:30:12;21.20;99.90
14006;DHT22;7078;51.542;7.314;2023-06-22T06:32:39;21.20;99.90
14006;DHT22;7078;51.542;7.314;2023-06-22T06:35:09;21.20;99.90
14006;DHT22;7078;51.542;7.314;2023-06-22T06:37:42;21.20;99.90
14006;DHT22;7078;51.542;7.314;2023-06-22T06:40:09;21.20;99.90
14006;DHT22;7078;51.542;7.314;2023-06-22T06:42:40;21.30;99.90
14006;DHT22;7078;51.542;7.314;2023-06-22T06:45:07;21.20;99.90
14006;DHT22;7078;51.542;7.314;2023-06-22T06:47:33;21.20;99.90
14006;DHT22;7078;51.542;7.314;2023-06-22T06:49:59;21.20;99.90
14006;DHT22;7078;51.542;7.314;2023-06-22T06:52:25;21.30;99.90
14006;DHT22;7078;51.542;7.314;2023-06-22T06:54:50;21.30;99.90
14006;DHT22;7078;51.542;7.314;2023-06-22T06:57:18;21.30;99.90
14006;DHT22;7078;51.542;7.314;2023-06-22T06:59:43;21.30;99.90
14006;DHT22;7078;51.542;7.314;2023-06-22T07:02:09;21.30;99.90
14006;DHT22;7078;51.542;7.314;2023-06-22T07:04:34;21.40;99.90
14006;DHT22;7078;51.542;7.314;2023-06-22T07:07:01;21.40;99.90
14006;DHT22;7078;51.542;7.314;2023-06-22T07:09:27;21.60;99.90
14006;DHT22;7078;51.542;7.314;2023-06-22T07:11:53;21.70;99.90
14006;DHT22;7078;51.542;7.314;2023-06-22T07:14:18;21.80;99.90
14006;DHT22;7078;51.542;7.314;2023-06-22T07:16:44;21.90;99.90
14006;DHT22;7078;51.542;7.314;2023-06-22T07:19:11;21.90;99.90
14006;DHT22;7078;51.542;7.314;2023-06-22T07:21:38;21.90;99.90
14006;DHT22;7078;51.542;7.314;2023-06-22T07:24:05;21.90;99.90
14006;DHT22;7078;51.542;7.314;2023-06-22T07:26:31;21.90;99.90
14006;DHT22;7078;51.542;7.314;2023-06-22T07:28:57;21.90;99.90
14006;DHT22;7078;51.542;7.314;2023-06-22T07:31:24;21.90;99.90
14006;DHT22;7078;51.542;7.314;2023-06-22T07:33:50;21.90;99.90
14006;DHT22;7078;51.542;7.314;2023-06-22T07:36:16;21.90;99.90
14006;DHT22;7078;51.542;7.314;2023-06-22T07:38:42;21.90;99.90
14006;DHT22;7078;51.542;7.314;2023-06-22T07:41:08;21.90;99.90
14006;DHT22;7078;51.542;7.314;2023-06-22T07:43:34;21.90;99.90
14006;DHT22;7078;51.542;7.314;2023-06-22T07:46:03;21.90;99.90
14006;DHT22;7078;51.542;7.314;2023-06-22T07:48:29;22.00;99.90
14006;DHT22;7078;51.542;7.314;2023-06-22T07:50:55;21.90;99.90
14006;DHT22;7078;51.542;7.314;2023-06-22T07:53:21;22.00;99.90
14006;DHT22;7078;51.542;7.314;2023-06-22T07:55:47;22.00;99.90
14006;DHT22;7078;51.542;7.314;2023-06-22T07:58:13;22.10;99.90
14006;DHT22;7078;51.542;7.314;2023-06-22T08:00:38;22.20;99.90
14006;DHT22;7078;51.542;7.314;2023-06-22T08:03:04;22.40;99.90
14006;DHT22;7078;51.542;7.314;2023-06-22T08:05:30;22.50;99.90
14006;DHT22;7078;51.542;7.314;2023-06-22T08:07:56;22.60;99.90
14006;DHT22;7078;51.542;7.314;2023-06-22T08:10:22;22.60;99.90
14006;DHT22;7078;51.542;7.314;2023-06-22T08:12:48;22.80;99.90
14006;DHT22;7078;51.542;7.314;2023-06-22T08:15:14;22.70;99.90
14006;DHT22;7078;51.542;7.314;2023-06-22T08:17:40;22.80;99.90
14006;DHT22;7078;51.542;7.314;2023-06-22T08:20:06;22.90;99.90
14006;DHT22;7078;51.542;7.314;2023-06-22T08:22:37;22.90;99.90
14006;DHT22;7078;51.542;7.314;2023-06-22T08:25:03;22.90;99.90
14006;DHT22;7078;51.542;7.314;2023-06-22T08:27:30;22.90;99.90
14006;DHT22;7078;51.542;7.314;2023-06-22T08:30:00;22.90;99.90
14006;DHT22;7078;51.542;7.314;2023-06-22T08:32:27;22.90;99.90
14006;DHT22;7078;51.542;7.314;2023-06-22T08:34:54;22.90;99.90
14006;DHT22;7078;51.542;7.314;2023-06-22T08:37:20;22.80;99.90
14006;DHT22;7078;51.542;7.314;2023-06-22T08:39:49;22.80;99.90
14006;DHT22;7078;51.542;7.314;2023-06-22T08:42:15;22.80;99.90
14006;DHT22;7078;51.542;7.314;2023-06-22T08:44:40;22.90;99.90
14006;DHT22;7078;51.542;7.314;2023-06-22T08:47:06;23.00;99.90
14006;DHT22;7078;51.542;7.314;2023-06-22T08:49:31;23.30;99.90
14006;DHT22;7078;51.542;7.314;2023-06-22T08:51:57;23.50;99.90
14006;DHT22;7078;51.542;7.314;2023-06-22T08:54:23;23.50;99.90
14006;DHT22;7078;51.542;7.314;2023-06-22T08:56:48;23.60;99.90
14006;DHT22;7078;51.542;7.314;2023-06-22T08:59:14;23.60;99.90
14006;DHT22;7078;51.542;7.314;2023-06-22T09:01:39;23.70;99.90
14006;DHT22;7078;51.542;7.314;2023-06-22T09:04:05;23.80;99.90
14006;DHT22;7078;51.542;7.314;2023-06-22T09:06:32;23.90;99.90
14006;DHT22;7078;51.542;7.314;2023-06-22T09:08:58;23.90;99.90
14006;DHT22;7078;51.542;7.314;2023-06-22T09:11:26;24.00;99.90
14006;DHT22;7078;51.542;7.314;2023-06-22T09:13:52;24.00;99.90
14006;DHT22;7078;51.542;7.314;2023-06-22T09:16:19;24.10;99.90
14006;DHT22;7078;51.542;7.314;2023-06-22T09:18:47;24.30;99.90
14006;DHT22;7078;51.542;7.314;2023-06-22T09:21:13;24.40;99.90
14006;DHT22;7078;51.542;7.314;2023-06-22T09:23:39;24.40;99.90
14006;DHT22;7078;51.542;7.314;2023-06-22T09:26:04;24.50;99.90
14006;DHT22;7078;51.542;7.314;2023-06-22T09:28:30;24.60;99.90
14006;DHT22;7078;51.542;7.314;2023-06-22T09:30:55;24.70;99.90
14006;DHT22;7078;51.542;7.314;2023-06-22T09:33:25;24.80;99.90
14006;DHT22;7078;51.542;7.314;2023-06-22T09:35:51;25.00;99.90
14006;DHT22;7078;51.542;7.314;2023-06-22T09:38:17;25.40;99.90
14006;DHT22;7078;51.542;7.314;2023-06-22T09:40:42;25.70;99.90
14006;DHT22;7078;51.542;7.314;2023-06-22T09:43:08;25.90;99.90
14006;DHT22;7078;51.542;7.314;2023-06-22T09:45:33;25.90;99.90
14006;DHT22;7078;51.542;7.314;2023-06-22T09:47:59;26.10;99.90
14006;DHT22;7078;51.542;7.314;2023-06-22T09:50:25;26.20;99.90
14006;DHT22;7078;51.542;7.314;2023-06-22T09:52:51;26.20;99.90
14006;DHT22;7078;51.542;7.314;2023-06-22T09:55:20;26.50;99.90
14006;DHT22;7078;51.542;7.314;2023-06-22T09:57:49;26.80;99.90
14006;DHT22;7078;51.542;7.314;2023-06-22T10:00:16;27.00;99.90
14006;DHT22;7078;51.542;7.314;2023-06-22T10:02:42;27.00;99.90
14006;DHT22;7078;51.542;7.314;2023-06-22T10:05:08;27.10;99.90
14006;DHT22;7078;51.542;7.314;2023-06-22T10:07:34;26.90;99.90
14006;DHT22;7078;51.542;7.314;2023-06-22T10:09:59;26.90;99.90
14006;DHT22;7078;51.542;7.314;2023-06-22T10:12:27;26.70;99.90
14006;DHT22;7078;51.542;7.314;2023-06-22T10:14:53;26.60;99.90
14006;DHT22;7078;51.542;7.314;2023-06-22T10:17:18;26.70;99.90
14006;DHT22;7078;51.542;7.314;2023-06-22T10:19:44;26.80;99.90
14006;DHT22;7078;51.542;7.314;2023-06-22T10:22:09;26.90;99.90
14006;DHT22;7078;51.542;7.314;2023-06-22T10:24:35;26.90;99.90
14006;DHT22;7078;51.542;7.314;2023-06-22T10:27:00;27.00;99.90
14006;DHT22;7078;51.542;7.314;2023-06-22T10:29:26;27.00;99.90
14006;DHT22;7078;51.542;7.314;2023-06-22T10:31:51;27.00;99.90
14006;DHT22;7078;51.542;7.314;2023-06-22T10:34:17;27.40;99.90
14006;DHT22;7078;51.542;7.314;2023-06-22T10:36:42;27.40;99.90
14006;DHT22;7078;51.542;7.314;2023-06-22T10:39:08;27.50;99.90
14006;DHT22;7078;51.542;7.314;2023-06-22T10:41:35;27.50;99.90
14006;DHT22;7078;51.542;7.314;2023-06-22T10:44:00;27.60;99.90
14006;DHT22;7078;51.542;7.314;2023-06-22T10:46:26;27.90;99.90
14006;DHT22;7078;51.542;7.314;2023-06-22T10:48:53;28.00;99.90
14006;DHT22;7078;51.542;7.314;2023-06-22T10:51:22;28.10;97.30
14006;DHT22;7078;51.542;7.314;2023-06-22T10:53:47;28.10;96.00
14006;DHT22;7078;51.542;7.314;2023-06-22T10:56:13;28.20;95.20
14006;DHT22;7078;51.542;7.314;2023-06-22T10:58:38;28.00;95.20
14006;DHT22;7078;51.542;7.314;2023-06-22T11:01:04;27.90;95.70
14006;DHT22;7078;51.542;7.314;2023-06-22T11:03:29;28.00;99.90
14006;DHT22;7078;51.542;7.314;2023-06-22T11:05:55;28.00;99.90
14006;DHT22;7078;51.542;7.314;2023-06-22T11:08:21;27.80;99.90
14006;DHT22;7078;51.542;7.314;2023-06-22T11:10:46;27.70;99.90
14006;DHT22;7078;51.542;7.314;2023-06-22T11:13:12;27.60;99.90
14006;DHT22;7078;51.542;7.314;2023-06-22T11:15:38;27.40;99.90
14006;DHT22;7078;51.542;7.314;2023-06-22T11:18:04;27.30;99.90
14006;DHT22;7078;51.542;7.314;2023-06-22T11:20:33;26.80;99.90
14006;DHT22;7078;51.542;7.314;2023-06-22T11:23:00;26.50;99.90
14006;DHT22;7078;51.542;7.314;2023-06-22T11:25:25;26.10;99.90
14006;DHT22;7078;51.542;7.314;2023-06-22T11:27:51;26.00;99.90
14006;DHT22;7078;51.542;7.314;2023-06-22T11:30:19;25.80;99.90
14006;DHT22;7078;51.542;7.314;2023-06-22T11:32:45;25.70;99.90
14006;DHT22;7078;51.542;7.314;2023-06-22T11:35:10;25.60;99.90
14006;DHT22;7078;51.542;7.314;2023-06-22T11:37:36;25.40;99.90
14006;DHT22;7078;51.542;7.314;2023-06-22T11:40:02;25.30;99.90
14006;DHT22;7078;51.542;7.314;2023-06-22T11:42:30;25.10;99.90
14006;DHT22;7078;51.542;7.314;2023-06-22T11:44:56;24.90;99.90
14006;DHT22;7078;51.542;7.314;2023-06-22T11:47:21;24.70;99.90
14006;DHT22;7078;51.542;7.314;2023-06-22T11:49:47;24.50;99.90
14006;DHT22;7078;51.542;7.314;2023-06-22T11:52:12;24.40;99.90
14006;DHT22;7078;51.542;7.314;2023-06-22T11:54:38;24.30;99.90
14006;DHT22;7078;51.542;7.314;2023-06-22T11:57:04;24.00;99.90
14006;DHT22;7078;51.542;7.314;2023-06-22T11:59:29;23.80;99.90
14006;DHT22;7078;51.542;7.314;2023-06-22T12:01:57;23.60;99.90
14006;DHT22;7078;51.542;7.314;2023-06-22T12:04:23;23.50;99.90
14006;DHT22;7078;51.542;7.314;2023-06-22T12:06:49;23.30;99.90
14006;DHT22;7078;51.542;7.314;2023-06-22T12:09:14;23.20;99.90
14006;DHT22;7078;51.542;7.314;2023-06-22T12:11:40;23.10;99.90
14006;DHT22;7078;51.542;7.314;2023-06-22T12:14:05;23.00;99.90
14006;DHT22;7078;51.542;7.314;2023-06-22T12:16:31;22.90;99.90
14006;DHT22;7078;51.542;7.314;2023-06-22T12:18:56;22.80;99.90
14006;DHT22;7078;51.542;7.314;2023-06-22T12:21:22;22.60;99.90
14006;DHT22;7078;51.542;7.314;2023-06-22T12:23:48;22.60;99.90
14006;DHT22;7078;51.542;7.314;2023-06-22T12:26:13;22.60;99.90
14006;DHT22;7078;51.542;7.314;2023-06-22T12:28:39;22.60;99.90
14006;DHT22;7078;51.542;7.314;2023-06-22T12:31:04;22.50;99.90
14006;DHT22;7078;51.542;7.314;2023-06-22T12:33:30;22.50;99.90
14006;DHT22;7078;51.542;7.314;2023-06-22T12:35:56;22.50;99.90
14006;DHT22;7078;51.542;7.314;2023-06-22T12:38:22;22.50;99.90
14006;DHT22;7078;51.542;7.314;2023-06-22T12:40:47;22.40;99.90
14006;DHT22;7078;51.542;7.314;2023-06-22T12:43:14;22.40;99.90
14006;DHT22;7078;51.542;7.314;2023-06-22T12:45:40;22.40;99.90
14006;DHT22;7078;51.542;7.314;2023-06-22T12:48:06;22.40;99.90
14006;DHT22;7078;51.542;7.314;2023-06-22T12:50:32;22.30;99.90
14006;DHT22;7078;51.542;7.314;2023-06-22T12:52:57;22.20;99.90
14006;DHT22;7078;51.542;7.314;2023-06-22T12:55:23;22.20;99.90
14006;DHT22;7078;51.542;7.314;2023-06-22T12:57:49;22.20;99.90
14006;DHT22;7078;51.542;7.314;2023-06-22T13:00:14;22.20;99.90
14006;DHT22;7078;51.542;7.314;2023-06-22T13:02:40;22.10;99.90
14006;DHT22;7078;51.542;7.314;2023-06-22T13:05:06;22.00;99.90
14006;DHT22;7078;51.542;7.314;2023-06-22T13:07:31;22.00;99.90
14006;DHT22;7078;51.542;7.314;2023-06-22T13:09:57;22.00;99.90
14006;DHT22;7078;51.542;7.314;2023-06-22T13:12:22;22.00;99.90
14006;DHT22;7078;51.542;7.314;2023-06-22T13:14:48;21.90;99.90
14006;DHT22;7078;51.542;7.314;2023-06-22T13:17:14;21.80;99.90
14006;DHT22;7078;51.542;7.314;2023-06-22T13:19:40;21.80;99.90
14006;DHT22;7078;51.542;7.314;2023-06-22T13:24:50;21.80;99.90
14006;DHT22;7078;51.542;7.314;2023-06-22T13:27:16;21.90;99.90
14006;DHT22;7078;51.542;7.314;2023-06-22T13:29:42;22.00;99.90
14006;DHT22;7078;51.542;7.314;2023-06-22T13:32:07;22.20;99.90
14006;DHT22;7078;51.542;7.314;2023-06-22T13:34:33;22.40;99.90
14006;DHT22;7078;51.542;7.314;2023-06-22T13:36:58;22.60;99.90
14006;DHT22;7078;51.542;7.314;2023-06-22T13:39:24;22.70;99.90
14006;DHT22;7078;51.542;7.314;2023-06-22T13:41:49;22.80;99.90
14006;DHT22;7078;51.542;7.314;2023-06-22T13:44:15;22.80;99.90
14006;DHT22;7078;51.542;7.314;2023-06-22T13:46:40;22.60;99.90
14006;DHT22;7078;51.542;7.314;2023-06-22T13:49:06;22.60;99.90
14006;DHT22;7078;51.542;7.314;2023-06-22T13:51:31;22.50;99.90
14006;DHT22;7078;51.542;7.314;2023-06-22T13:53:58;22.50;99.90
14006;DHT22;7078;51.542;7.314;2023-06-22T13:56:23;22.50;99.90
14006;DHT22;7078;51.542;7.314;2023-06-22T13:58:49;22.50;99.90
14006;DHT22;7078;51.542;7.314;2023-06-22T14:01:14;22.50;99.90
14006;DHT22;7078;51.542;7.314;2023-06-22T14:03:40;22.60;99.90
14006;DHT22;7078;51.542;7.314;2023-06-22T14:06:05;22.50;99.90
14006;DHT22;7078;51.542;7.314;2023-06-22T14:08:31;22.60;99.90
14006;DHT22;7078;51.542;7.314;2023-06-22T14:10:57;22.70;99.90
14006;DHT22;7078;51.542;7.314;2023-06-22T14:13:22;22.80;99.90
14006;DHT22;7078;51.542;7.314;2023-06-22T14:15:48;23.00;99.90
14006;DHT22;7078;51.542;7.314;2023-06-22T14:18:14;23.10;99.90
14006;DHT22;7078;51.542;7.314;2023-06-22T14:20:40;23.20;99.90
14006;DHT22;7078;51.542;7.314;2023-06-22T14:23:06;23.20;99.90
14006;DHT22;7078;51.542;7.314;2023-06-22T14:25:31;23.20;99.90
14006;DHT22;7078;51.542;7.314;2023-06-22T14:27:57;23.10;99.90
14006;DHT22;7078;51.542;7.314;2023-06-22T14:30:22;23.00;99.90
14006;DHT22;7078;51.542;7.314;2023-06-22T14:32:48;22.80;99.90
14006;DHT22;7078;51.542;7.314;2023-06-22T14:35:13;22.70;99.90
14006;DHT22;7078;51.542;7.314;2023-06-22T14:37:39;22.60;99.90
14006;DHT22;7078;51.542;7.314;2023-06-22T14:40:05;22.50;99.90
14006;DHT22;7078;51.542;7.314;2023-06-22T14:42:31;22.50;99.90
14006;DHT22;7078;51.542;7.314;2023-06-22T14:44:56;22.40;99.90
14006;DHT22;7078;51.542;7.314;2023-06-22T14:47:22;22.40;99.90
14006;DHT22;7078;51.542;7.314;2023-06-22T14:49:48;22.40;99.90
14006;DHT22;7078;51.542;7.314;2023-06-22T14:52:14;22.40;99.90
14006;DHT22;7078;51.542;7.314;2023-06-22T14:54:39;22.50;99.90
14006;DHT22;7078;51.542;7.314;2023-06-22T14:57:05;22.40;99.90
14006;DHT22;7078;51.542;7.314;2023-06-22T14:59:30;22.40;99.90
14006;DHT22;7078;51.542;7.314;2023-06-22T15:01:56;22.40;99.90
14006;DHT22;7078;51.542;7.314;2023-06-22T15:04:22;22.20;99.90
14006;DHT22;7078;51.542;7.314;2023-06-22T15:06:47;22.30;99.90
14006;DHT22;7078;51.542;7.314;2023-06-22T15:09:13;22.20;99.90
14006;DHT22;7078;51.542;7.314;2023-06-22T15:11:38;22.20;99.90
14006;DHT22;7078;51.542;7.314;2023-06-22T15:14:04;22.10;99.90
14006;DHT22;7078;51.542;7.314;2023-06-22T15:16:30;22.10;99.90
14006;DHT22;7078;51.542;7.314;2023-06-22T15:18:55;22.10;99.90
14006;DHT22;7078;51.542;7.314;2023-06-22T15:21:21;22.20;99.90
14006;DHT22;7078;51.542;7.314;2023-06-22T15:23:46;22.20;99.90
14006;DHT22;7078;51.542;7.314;2023-06-22T15:26:12;22.10;99.90
14006;DHT22;7078;51.542;7.314;2023-06-22T15:28:39;22.10;99.90
14006;DHT22;7078;51.542;7.314;2023-06-22T15:31:05;22.00;99.90
14006;DHT22;7078;51.542;7.314;2023-06-22T15:33:32;21.90;99.90
14006;DHT22;7078;51.542;7.314;2023-06-22T15:35:58;21.90;99.90
14006;DHT22;7078;51.542;7.314;2023-06-22T15:38:28;21.90;99.90
14006;DHT22;7078;51.542;7.314;2023-06-22T15:40:53;21.60;99.90
14006;DHT22;7078;51.542;7.314;2023-06-22T15:43:19;21.50;99.90
14006;DHT22;7078;51.542;7.314;2023-06-22T15:45:45;21.50;99.90
14006;DHT22;7078;51.542;7.314;2023-06-22T15:48:10;21.50;99.90